sensor_id;sensor_type;location;lat;lon;timestamp;pressure;altitude;pressure_sealevel;temperature;humidity
58739;BME280;44512;53.046;18.604;2023-08-06T00:01:50;100787.93;;;18.89;70.21
58739;BME280;44512;53.046;18.604;2023-08-06T00:12:18;100768.72;;;18.89;70.62
58739;BME280;44512;53.046;18.604;2023-08-06T00:22:46;100754.95;;;18.84;71.18
58739;BME280;44512;53.046;18.604;2023-08-06T00:33:15;100733.51;;;18.81;71.65
58739;BME280;44512;53.046;18.604;2023-08-06T00:43:43;100697.80;;;18.76;71.95
58739;BME280;44512;53.046;18.604;2023-08-06T00:54:12;100678.22;;;18.67;72.41
58739;BME280;44512;53.046;18.604;2023-08-06T01:04:40;100648.82;;;18.62;72.77
58739;BME280;44512;53.046;18.604;2023-08-06T01:15:21;100613.13;;;18.57;72.86
58739;BME280;44512;53.046;18.604;2023-08-06T01:26:03;100579.09;;;18.53;72.86
58739;BME280;44512;53.046;18.604;2023-08-06T01:36:06;100512.70;;;18.46;72.93
58739;BME280;44512;53.046;18.604;2023-08-06T01:46:33;100425.51;;;18.43;73.10
58739;BME280;44512;53.046;18.604;2023-08-06T01:57:01;100370.34;;;18.34;73.53
58739;BME280;44512;53.046;18.604;2023-08-06T02:07:30;100464.37;;;18.40;73.79
58739;BME280;44512;53.046;18.604;2023-08-06T02:17:58;100450.67;;;18.40;73.84
58739;BME280;44512;53.046;18.604;2023-08-06T02:28:27;100414.86;;;18.46;73.91
58739;BME280;44512;53.046;18.604;2023-08-06T02:38:55;100437.62;;;18.47;74.10
58739;BME280;44512;53.046;18.604;2023-08-06T02:49:23;100393.18;;;18.45;74.29
58739;BME280;44512;53.046;18.604;2023-08-06T02:59:52;100410.72;;;18.44;74.46
58739;BME280;44512;53.046;18.604;2023-08-06T03:10:20;100388.33;;;18.52;74.40
58739;BME280;44512;53.046;18.604;2023-08-06T03:20:48;100365.30;;;18.53;74.52
58739;BME280;44512;53.046;18.604;2023-08-06T03:31:17;100347.77;;;18.54;74.43
58739;BME280;44512;53.046;18.604;2023-08-06T03:41:45;100327.02;;;18.63;74.32
58739;BME280;44512;53.046;18.604;2023-08-06T03:52:13;100238.20;;;18.64;74.25
58739;BME280;44512;53.046;18.604;2023-08-06T04:02:42;100135.62;;;18.50;74.58
58739;BME280;44512;53.046;18.604;2023-08-06T04:13:10;100126.86;;;18.48;74.85
58739;BME280;44512;53.046;18.604;2023-08-06T04:23:38;100186.31;;;18.47;75.06
58739;BME280;44512;53.046;18.604;2023-08-06T04:34:07;100175.36;;;18.47;75.22
58739;BME280;44512;53.046;18.604;2023-08-06T04:44:35;100189.91;;;18.53;75.51
58739;BME280;44512;53.046;18.604;2023-08-06T04:55:04;100172.70;;;18.63;75.54
58739;BME280;44512;53.046;18.604;2023-08-06T05:05:32;100174.12;;;18.70;75.49
58739;BME280;44512;53.046;18.604;2023-08-06T05:16:00;100142.91;;;18.77;75.53
58739;BME280;44512;53.046;18.604;2023-08-06T05:26:28;100120.44;;;18.85;75.59
58739;BME280;44512;53.046;18.604;2023-08-06T05:36:57;100102.91;;;18.91;75.81
58739;BME280;44512;53.046;18.604;2023-08-06T05:47:25;100108.40;;;18.96;75.85
58739;BME280;44512;53.046;18.604;2023-08-06T05:57:54;100088.67;;;18.99;75.85
58739;BME280;44512;53.046;18.604;2023-08-06T06:08:22;100077.99;;;19.03;75.90
58739;BME280;44512;53.046;18.604;2023-08-06T06:18:50;100077.15;;;19.07;75.95
58739;BME280;44512;53.046;18.604;2023-08-06T06:29:18;100051.41;;;19.13;75.97
58739;BME280;44512;53.046;18.604;2023-08-06T06:39:47;100047.27;;;19.21;75.99
58739;BME280;44512;53.046;18.604;2023-08-06T06:50:15;100020.41;;;19.28;75.98
58739;BME280;44512;53.046;18.604;2023-08-06T07:00:43;100003.09;;;19.33;75.94
58739;BME280;44512;53.046;18.604;2023-08-06T07:11:12;99999.80;;;19.36;76.01
58739;BME280;44512;53.046;18.604;2023-08-06T07:21:40;100004.75;;;19.39;76.07
58739;BME280;44512;53.046;18.604;2023-08-06T07:32:08;99974.57;;;19.39;76.13
58739;BME280;44512;53.046;18.604;2023-08-06T07:42:37;99957.81;;;19.40;76.30
58739;BME280;44512;53.046;18.604;2023-08-06T07:53:05;99949.02;;;19.43;76.50
58739;BME280;44512;53.046;18.604;2023-08-06T08:03:33;99920.74;;;19.48;76.68
58739;BME280;44512;53.046;18.604;2023-08-06T08:14:01;99917.98;;;19.53;76.93
58739;BME280;44512;53.046;18.604;2023-08-06T08:24:30;99908.67;;;19.54;77.25
58739;BME280;44512;53.046;18.604;2023-08-06T08:34:58;99871.06;;;19.55;77.68
58739;BME280;44512;53.046;18.604;2023-08-06T08:45:28;99868.02;;;19.56;78.16
58739;BME280;44512;53.046;18.604;2023-08-06T08:55:55;99852.68;;;19.60;78.64
58739;BME280;44512;53.046;18.604;2023-08-06T09:06:26;99828.20;;;19.59;79.01
58739;BME280;44512;53.046;18.604;2023-08-06T09:16:52;99817.46;;;19.72;79.37
58739;BME280;44512;53.046;18.604;2023-08-06T09:27:22;99813.05;;;19.76;79.68
58739;BME280;44512;53.046;18.604;2023-08-06T09:37:48;99800.38;;;19.86;80.02
58739;BME280;44512;53.046;18.604;2023-08-06T09:48:16;99767.66;;;19.89;80.33
58739;BME280;44512;53.046;18.604;2023-08-06T09:58:47;99756.37;;;19.96;80.72
58739;BME280;44512;53.046;18.604;2023-08-06T10:09:13;99751.36;;;20.03;81.20
58739;BME280;44512;53.046;18.604;2023-08-06T10:19:42;99738.11;;;20.10;81.52
58739;BME280;44512;53.046;18.604;2023-08-06T10:56:26;99677.93;;;20.43;82.04
58739;BME280;44512;53.046;18.604;2023-08-06T11:06:53;99666.84;;;20.53;82.37
58739;BME280;44512;53.046;18.604;2023-08-06T11:17:22;99654.32;;;20.66;82.25
58739;BME280;44512;53.046;18.604;2023-08-06T11:27:50;99630.80;;;20.78;82.07
58739;BME280;44512;53.046;18.604;2023-08-06T11:38:18;99618.02;;;20.88;82.14
58739;BME280;44512;53.046;18.604;2023-08-06T11:48:54;99589.27;;;20.99;82.41
58739;BME280;44512;53.046;18.604;2023-08-06T11:59:15;99583.55;;;21.14;82.67
58739;BME280;44512;53.046;18.604;2023-08-06T12:09:43;99578.36;;;21.31;82.72
58739;BME280;44512;53.046;18.604;2023-08-06T12:20:12;99568.59;;;21.39;82.62
58739;BME280;44512;53.046;18.604;2023-08-06T12:30:40;99560.48;;;21.48;82.69
58739;BME280;44512;53.046;18.604;2023-08-06T12:41:09;99528.30;;;21.62;82.72
58739;BME280;44512;53.046;18.604;2023-08-06T12:51:37;99526.12;;;21.92;82.45
58739;BME280;44512;53.046;18.604;2023-08-06T13:02:06;99503.37;;;22.27;81.80
58739;BME280;44512;53.046;18.604;2023-08-06T13:12:34;99476.04;;;22.67;80.10
58739;BME280;44512;53.046;18.604;2023-08-06T13:23:02;99461.42;;;23.03;77.96
58739;BME280;44512;53.046;18.604;2023-08-06T13:33:30;99494.30;;;23.13;76.11
58739;BME280;44512;53.046;18.604;2023-08-06T13:43:59;99473.39;;;23.21;75.10
58739;BME280;44512;53.046;18.604;2023-08-06T13:54:27;99490.96;;;23.25;74.67
58739;BME280;44512;53.046;18.604;2023-08-06T14:04:56;99472.58;;;23.20;74.61
58739;BME280;44512;53.046;18.604;2023-08-06T14:15:24;99487.48;;;23.10;74.97
58739;BME280;44512;53.046;18.604;2023-08-06T14:25:52;99446.50;;;23.04;75.68
58739;BME280;44512;53.046;18.604;2023-08-06T14:36:21;99464.31;;;22.98;76.88
58739;BME280;44512;53.046;18.604;2023-08-06T14:46:49;99468.20;;;22.97;78.28
58739;BME280;44512;53.046;18.604;2023-08-06T14:57:18;99468.82;;;22.94;78.02
58739;BME280;44512;53.046;18.604;2023-08-06T15:07:46;99477.21;;;22.88;77.84
58739;BME280;44512;53.046;18.604;2023-08-06T15:18:15;99499.38;;;22.83;78.13
58739;BME280;44512;53.046;18.604;2023-08-06T15:28:42;99517.46;;;22.90;77.83
58739;BME280;44512;53.046;18.604;2023-08-06T15:39:11;99522.95;;;23.03;77.15
58739;BME280;44512;53.046;18.604;2023-08-06T15:49:39;99556.27;;;23.07;76.27
58739;BME280;44512;53.046;18.604;2023-08-06T16:00:09;99591.12;;;23.03;74.42
58739;BME280;44512;53.046;18.604;2023-08-06T16:10:36;99620.29;;;22.95;73.12
58739;BME280;44512;53.046;18.604;2023-08-06T16:21:04;99637.84;;;22.85;71.11
58739;BME280;44512;53.046;18.604;2023-08-06T16:31:33;99616.20;;;22.65;69.23
58739;BME280;44512;53.046;18.604;2023-08-06T16:42:01;99639.98;;;22.33;68.02
58739;BME280;44512;53.046;18.604;2023-08-06T16:52:29;99628.80;;;22.11;67.42
58739;BME280;44512;53.046;18.604;2023-08-06T17:02:57;99637.23;;;21.68;66.65
58739;BME280;44512;53.046;18.604;2023-08-06T17:13:26;99647.91;;;21.37;66.71
58739;BME280;44512;53.046;18.604;2023-08-06T17:23:54;99677.85;;;21.20;66.95
58739;BME280;44512;53.046;18.604;2023-08-06T17:34:23;99689.27;;;21.08;66.75
58739;BME280;44512;53.046;18.604;2023-08-06T17:44:51;99675.14;;;20.96;66.49
58739;BME280;44512;53.046;18.604;2023-08-06T17:55:19;99675.84;;;20.83;66.49
58739;BME280;44512;53.046;18.604;2023-08-06T18:05:56;99698.91;;;20.63;66.40
58739;BME280;44512;53.046;18.604;2023-08-06T18:16:16;99697.21;;;20.38;66.37
58739;BME280;44512;53.046;18.604;2023-08-06T18:26:44;99731.19;;;20.18;66.24
58739;BME280;44512;53.046;18.604;2023-08-06T18:37:13;99743.13;;;20.03;65.94
58739;BME280;44512;53.046;18.604;2023-08-06T18:47:41;99724.31;;;19.86;66.16
58739;BME280;44512;53.046;18.604;2023-08-06T18:58:09;99738.14;;;19.71;66.65
58739;BME280;44512;53.046;18.604;2023-08-06T19:08:37;99750.50;;;19.68;66.73
58739;BME280;44512;53.046;18.604;2023-08-06T19:19:06;99760.69;;;19.63;67.15
58739;BME280;44512;53.046;18.604;2023-08-06T19:29:34;99750.00;;;19.56;67.30
58739;BME280;44512;53.046;18.604;2023-08-06T19:40:03;99712.23;;;19.38;67.38
58739;BME280;44512;53.046;18.604;2023-08-06T19:50:31;99706.53;;;19.29;67.52
58739;BME280;44512;53.046;18.604;2023-08-06T20:01:01;99714.54;;;19.15;67.59
58739;BME280;44512;53.046;18.604;2023-08-06T20:11:27;99712.13;;;19.04;67.77
58739;BME280;44512;53.046;18.604;2023-08-06T20:21:55;99732.73;;;18.91;67.83
58739;BME280;44512;53.046;18.604;2023-08-06T20:32:24;99738.84;;;18.72;67.90
58739;BME280;44512;53.046;18.604;2023-08-06T20:42:52;99749.80;;;18.57;68.11
58739;BME280;44512;53.046;18.604;2023-08-06T20:53:20;99746.52;;;18.45;68.21
58739;BME280;44512;53.046;18.604;2023-08-06T21:03:49;99759.15;;;18.31;68.48
58739;BME280;44512;53.046;18.604;2023-08-06T21:14:17;99769.55;;;18.13;68.81
58739;BME280;44512;53.046;18.604;2023-08-06T21:24:45;99787.87;;;17.98;69.04
58739;BME280;44512;53.046;18.604;2023-08-06T21:35:13;99795.24;;;17.87;69.31
58739;BME280;44512;53.046;18.604;2023-08-06T21:45:42;99798.53;;;17.74;69.62
58739;BME280;44512;53.046;18.604;2023-08-06T21:56:11;99822.54;;;17.66;69.80
58739;BME280;44512;53.046;18.604;2023-08-06T22:06:38;99827.17;;;17.61;70.01
58739;BME280;44512;53.046;18.604;2023-08-06T22:17:06;99855.88;;;17.53;70.16
58739;BME280;44512;53.046;18.604;2023-08-06T22:27:34;99844.62;;;17.44;70.19
58739;BME280;44512;53.046;18.604;2023-08-06T22:38:03;99850.32;;;17.33;70.44
58739;BME280;44512;53.046;18.604;2023-08-06T22:48:31;99841.00;;;17.29;70.68
58739;BME280;44512;53.046;18.604;2023-08-06T22:58:59;99852.44;;;17.21;70.69
58739;BME280;44512;53.046;18.604;2023-08-06T23:09:28;99862.25;;;17.11;70.66
58739;BME280;44512;53.046;18.604;2023-08-06T23:19:55;99876.40;;;17.03;70.64
58739;BME280;44512;53.046;18.604;2023-08-06T23:30:24;99891.09;;;16.92;70.73
58739;BME280;44512;53.046;18.604;2023-08-06T23:40:53;99897.30;;;16.82;70.96
58739;BME280;44512;53.046;18.604;2023-08-06T23:51:21;99916.59;;;16.71;71.07
